createdAt,value
2023-03-03T00:00:07.712Z,100156.02
2023-03-03T00:01:24.713Z,100148.97
2023-03-03T00:02:34.122Z,100148.08
2023-03-03T00:03:45.769Z,100152.53
2023-03-03T00:04:55.618Z,100149.11
2023-03-03T00:07:23.714Z,100135.50
2023-03-03T00:08:33.668Z,100141.16
2023-03-03T00:09:42.741Z,100139.45
2023-03-03T00:10:52.463Z,100145.55
2023-03-03T00:13:23.947Z,100139.05
2023-03-03T00:14:34.179Z,100127.84
2023-03-03T00:15:44.037Z,100135.75
2023-03-03T00:16:53.832Z,100133.95
2023-03-03T00:19:23.550Z,100124.70
2023-03-03T00:20:35.899Z,100127.66
2023-03-03T00:21:51.211Z,100129.56
2023-03-03T00:23:39.058Z,100121.53
2023-03-03T00:24:50.288Z,100124.16
2023-03-03T00:25:59.268Z,100112.77
2023-03-03T00:27:29.911Z,100109.27
2023-03-03T00:28:47.552Z,100114.67
2023-03-03T00:29:59.897Z,100112.77
2023-03-03T00:31:21.615Z,100116.34
2023-03-03T00:32:40.045Z,100116.34
2023-03-03T00:33:56.637Z,100111.03
2023-03-03T00:35:28.360Z,100110.88
2023-03-03T00:36:39.184Z,100109.87
2023-03-03T00:37:50.331Z,100110.81
2023-03-03T00:39:01.145Z,100106.61
2023-03-03T00:41:40.042Z,100094.77
2023-03-03T00:42:53.024Z,100104.81
2023-03-03T00:44:05.693Z,100100.30
2023-03-03T00:45:25.491Z,100101.17
2023-03-03T00:46:37.355Z,100097.64
2023-03-03T00:49:03.425Z,100092.17
2023-03-03T00:51:36.497Z,100089.64
2023-03-03T00:54:05.787Z,100087.91
2023-03-03T00:55:16.003Z,100091.75
2023-03-03T00:56:26.277Z,100091.75
2023-03-03T00:57:35.312Z,100094.37
2023-03-03T00:58:47.259Z,100090.84
2023-03-03T00:59:59.953Z,100089.29
2023-03-03T01:01:11.600Z,100087.39
2023-03-03T01:02:25.204Z,100084.68
2023-03-03T01:03:34.740Z,100079.24
2023-03-03T01:04:48.053Z,100081.05
2023-03-03T01:05:57.881Z,100073.17
2023-03-03T01:08:21.912Z,100078.95
2023-03-03T01:09:31.701Z,100071.63
2023-03-03T01:10:52.859Z,100075.23
2023-03-03T01:12:03.219Z,100073.61
2023-03-03T01:13:13.010Z,100073.61
2023-03-03T01:14:22.986Z,100077.19
2023-03-03T01:15:34.581Z,100065.59
2023-03-03T01:16:44.071Z,100061.83
2023-03-03T01:17:54.452Z,100070.48
2023-03-03T01:19:03.299Z,100059.55
2023-03-03T01:20:14.583Z,100057.81
2023-03-03T01:21:24.243Z,100058.70
2023-03-03T01:22:34.462Z,100056.05
2023-03-03T01:23:44.060Z,100062.08
2023-03-03T01:24:53.971Z,100064.58
2023-03-03T01:26:04.514Z,100059.27
2023-03-03T01:27:14.263Z,100058.50
2023-03-03T01:28:24.125Z,100051.59
2023-03-03T01:29:34.728Z,100053.39
2023-03-03T01:30:43.575Z,100055.79
2023-03-03T01:31:52.313Z,100054.87
2023-03-03T01:33:02.794Z,100046.97
2023-03-03T01:34:12.390Z,100047.03
2023-03-03T01:35:23.621Z,100050.61
2023-03-03T01:36:33.903Z,100048.02
2023-03-03T01:37:42.876Z,100050.80
2023-03-03T01:38:52.976Z,100044.73
2023-03-03T01:40:02.543Z,100050.23
2023-03-03T01:41:11.206Z,100052.83
2023-03-03T01:42:21.056Z,100048.30
2023-03-03T01:44:49.002Z,100045.00
2023-03-03T01:46:02.638Z,100046.28
2023-03-03T01:47:18.351Z,100045.36
2023-03-03T01:48:37.253Z,100043.63
2023-03-03T01:49:58.946Z,100040.91
2023-03-03T01:52:35.006Z,100033.44
2023-03-03T01:53:51.338Z,100041.86
2023-03-03T01:55:08.457Z,100041.95
2023-03-03T01:56:17.903Z,100038.51
2023-03-03T01:57:37.413Z,100038.51
2023-03-03T02:00:11.199Z,100031.53
2023-03-03T02:01:28.284Z,100034.55
2023-03-03T02:02:40.100Z,100024.75
2023-03-03T02:03:49.491Z,100028.19
2023-03-03T02:04:58.862Z,100023.77
2023-03-03T02:07:29.593Z,100017.83
2023-03-03T02:08:59.686Z,100027.01
2023-03-03T02:10:17.998Z,100023.50
2023-03-03T02:11:31.445Z,100023.44
2023-03-03T02:12:53.578Z,100030.48
2023-03-03T02:14:05.745Z,100027.89
2023-03-03T02:15:23.882Z,100024.55
2023-03-03T02:16:34.130Z,100021.89
2023-03-03T02:17:44.971Z,100018.55
2023-03-03T02:18:54.663Z,100023.01
2023-03-03T02:20:08.104Z,100018.68
2023-03-03T02:22:43.716Z,100007.83
2023-03-03T02:24:00.258Z,100013.50
2023-03-03T02:25:13.301Z,100017.99
2023-03-03T02:27:40.472Z,100003.64
2023-03-03T02:28:50.476Z,100005.77
2023-03-03T02:30:18.287Z,100007.44
2023-03-03T02:31:29.963Z,100008.33
2023-03-03T02:32:40.766Z,100010.29
2023-03-03T02:33:50.346Z,100013.80
2023-03-03T02:34:58.901Z,100015.53
2023-03-03T02:36:18.240Z,100000.45
2023-03-03T02:37:30.144Z,100003.93
2023-03-03T02:38:57.416Z,100001.21
2023-03-03T02:40:09.773Z,99994.10
2023-03-03T02:43:01.131Z,99991.02
2023-03-03T02:44:16.511Z,100002.81
2023-03-03T02:45:26.412Z,99997.58
2023-03-03T02:47:57.169Z,99998.27
2023-03-03T02:49:07.685Z,99996.95
2023-03-03T02:50:17.960Z,100000.59
2023-03-03T02:51:28.497Z,99995.41
2023-03-03T02:52:37.978Z,99995.47
2023-03-03T02:53:47.909Z,99997.28
2023-03-03T02:54:57.636Z,99994.55
2023-03-03T02:56:09.164Z,99987.51
2023-03-03T02:57:19.071Z,99989.25
2023-03-03T02:58:27.912Z,99994.49
2023-03-03T02:59:37.705Z,99987.38
2023-03-03T03:00:49.401Z,99995.34
2023-03-03T03:02:00.048Z,99990.10
2023-03-03T03:03:09.514Z,99989.25
2023-03-03T03:04:24.451Z,99992.75
2023-03-03T03:05:34.364Z,99994.36
2023-03-03T03:06:45.918Z,99996.03
2023-03-03T03:07:55.568Z,99991.77
2023-03-03T03:10:23.728Z,99981.71
2023-03-03T03:11:32.846Z,99991.02
2023-03-03T03:12:41.490Z,99990.95
2023-03-03T03:13:52.445Z,99983.81
2023-03-03T03:15:01.478Z,99988.92
2023-03-03T03:16:12.304Z,99993.25
2023-03-03T03:17:22.092Z,99987.02
2023-03-03T03:18:32.144Z,99982.40
2023-03-03T03:19:41.136Z,99990.30
2023-03-03T03:20:49.788Z,99991.15
2023-03-03T03:21:58.802Z,99981.52
2023-03-03T03:23:10.810Z,99985.05
2023-03-03T03:25:36.968Z,99978.22
2023-03-03T03:26:47.706Z,99989.18
2023-03-03T03:27:57.849Z,99989.05
2023-03-03T03:29:09.216Z,99984.48
2023-03-03T03:30:20.123Z,99987.17
2023-03-03T03:31:30.189Z,99982.81
2023-03-03T03:32:39.248Z,99980.27
2023-03-03T03:33:49.742Z,99976.82
2023-03-03T03:34:59.552Z,99981.28
2023-03-03T03:36:10.005Z,99967.32
2023-03-03T03:37:19.099Z,99969.06
2023-03-03T03:38:30.485Z,99968.30
2023-03-03T03:40:58.243Z,99962.73
2023-03-03T03:42:08.016Z,99965.92
2023-03-03T03:44:31.753Z,99960.95
2023-03-03T03:46:59.388Z,99955.52
2023-03-03T03:48:08.626Z,99960.41
2023-03-03T03:50:32.905Z,99953.61
2023-03-03T03:52:57.993Z,99961.88
2023-03-03T03:54:08.360Z,99959.36
2023-03-03T03:56:34.465Z,99955.30
2023-03-03T03:57:45.137Z,99960.22
2023-03-03T03:58:56.006Z,99952.19
2023-03-03T04:00:06.021Z,99950.42
2023-03-03T04:02:32.563Z,99946.38
2023-03-03T04:03:42.443Z,99953.07
2023-03-03T04:04:53.672Z,99948.55
2023-03-03T04:07:18.255Z,99941.83
2023-03-03T04:09:44.583Z,99937.30
2023-03-03T04:12:10.713Z,99938.31
2023-03-03T04:13:20.356Z,99943.11
2023-03-03T04:15:46.270Z,99934.09
2023-03-03T04:16:54.979Z,99937.15
2023-03-03T04:19:19.428Z,99932.33
2023-03-03T04:20:30.274Z,99931.84
2023-03-03T04:21:40.278Z,99930.03
2023-03-03T04:22:51.129Z,99932.76
2023-03-03T04:24:00.057Z,99929.25
2023-03-03T04:25:15.921Z,99926.59
2023-03-03T04:26:27.519Z,99920.41
2023-03-03T04:27:37.968Z,99920.41
2023-03-03T04:28:47.870Z,99924.73
2023-03-03T04:29:57.756Z,99926.53
2023-03-03T04:31:08.963Z,99924.66
2023-03-03T04:32:18.374Z,99924.49
2023-03-03T04:33:28.040Z,99920.89
2023-03-03T04:34:38.520Z,99924.42
2023-03-03T04:35:48.604Z,99912.99
2023-03-03T04:36:58.191Z,99924.36
2023-03-03T04:38:07.473Z,99914.73
2023-03-03T04:39:17.257Z,99917.31
2023-03-03T04:40:27.595Z,99912.14
2023-03-03T04:41:37.649Z,99922.69
2023-03-03T04:44:03.034Z,99913.47
2023-03-03T04:45:12.764Z,99913.12
2023-03-03T04:46:22.767Z,99907.81
2023-03-03T04:47:33.134Z,99901.52
2023-03-03T04:48:43.006Z,99907.75
2023-03-03T04:49:53.445Z,99911.33
2023-03-03T04:51:02.360Z,99908.61
2023-03-03T04:52:13.731Z,99907.69
2023-03-03T04:54:38.132Z,99903.60
2023-03-03T04:55:50.993Z,99908.37
2023-03-03T04:58:16.373Z,99900.95
2023-03-03T04:59:25.888Z,99909.42
2023-03-03T05:00:35.998Z,99912.76
2023-03-03T05:03:01.178Z,99905.20
2023-03-03T05:04:11.140Z,99907.45
2023-03-03T05:05:21.068Z,99906.70
2023-03-03T05:06:31.433Z,99899.00
2023-03-03T05:07:40.468Z,99904.25
2023-03-03T05:08:50.074Z,99906.90
2023-03-03T05:09:59.599Z,99906.83
2023-03-03T05:11:09.863Z,99920.11
2023-03-03T05:12:18.937Z,99909.63
2023-03-03T05:13:28.446Z,99916.70
2023-03-03T05:14:38.032Z,99916.63
2023-03-03T05:17:12.014Z,99901.02
2023-03-03T05:18:23.014Z,99906.70
2023-03-03T05:19:32.745Z,99897.88
2023-03-03T05:20:42.303Z,99902.23
2023-03-03T05:21:52.087Z,99909.35
2023-03-03T05:23:01.728Z,99903.91
2023-03-03T05:24:11.910Z,99907.38
2023-03-03T05:25:22.258Z,99906.46
2023-03-03T05:26:31.872Z,99909.05
2023-03-03T05:27:40.534Z,99901.86
2023-03-03T05:28:50.098Z,99897.30
2023-03-03T05:29:58.665Z,99899.00
2023-03-03T05:31:08.547Z,99900.09
2023-03-03T05:32:17.970Z,99896.48
2023-03-03T05:33:27.517Z,99899.95
2023-03-03T05:34:36.889Z,99900.95
2023-03-03T05:37:00.541Z,99902.95
2023-03-03T05:38:09.554Z,99906.80
2023-03-03T05:39:18.317Z,99904.81
2023-03-03T05:40:28.049Z,99905.67
2023-03-03T05:41:37.836Z,99902.87
2023-03-03T05:42:46.902Z,99900.29
2023-03-03T05:43:56.094Z,99902.95
2023-03-03T05:46:22.130Z,99899.37
2023-03-03T05:47:30.869Z,99898.09
2023-03-03T05:48:39.945Z,99891.78
2023-03-03T05:49:49.505Z,99901.63
2023-03-03T05:51:00.483Z,99892.59
2023-03-03T05:52:09.585Z,99896.17
2023-03-03T05:53:19.611Z,99892.91
2023-03-03T05:54:28.228Z,99900.41
2023-03-03T05:55:38.067Z,99895.77
2023-03-03T05:56:48.251Z,99893.05
2023-03-03T05:57:57.429Z,99887.13
2023-03-03T06:00:23.108Z,99886.55
2023-03-03T06:01:32.805Z,99892.44
2023-03-03T06:03:57.877Z,99879.50
2023-03-03T06:05:08.338Z,99884.34
2023-03-03T06:06:19.820Z,99886.14
2023-03-03T06:07:29.451Z,99883.42
2023-03-03T06:08:39.109Z,99892.37
2023-03-03T06:09:48.173Z,99885.53
2023-03-03T06:10:57.530Z,99887.33
2023-03-03T06:12:07.661Z,99885.26
2023-03-03T06:14:33.152Z,99882.30
2023-03-03T06:15:42.677Z,99882.55
2023-03-03T06:16:52.498Z,99877.24
2023-03-03T06:18:01.575Z,99887.94
2023-03-03T06:20:25.017Z,99875.40
2023-03-03T06:21:34.357Z,99876.98
2023-03-03T06:22:43.888Z,99882.16
2023-03-03T06:23:52.766Z,99877.52
2023-03-03T06:25:02.359Z,99876.67
2023-03-03T06:26:11.757Z,99886.23
2023-03-03T06:27:20.977Z,99881.77
2023-03-03T06:28:30.819Z,99872.00
2023-03-03T06:29:41.646Z,99878.13
2023-03-03T06:30:56.094Z,99879.79
2023-03-03T06:33:20.846Z,99876.25
2023-03-03T06:34:29.748Z,99885.17
2023-03-03T06:35:39.297Z,99875.05
2023-03-03T06:36:48.491Z,99876.00
2023-03-03T06:37:58.105Z,99878.84
2023-03-03T06:39:07.015Z,99877.77
2023-03-03T06:40:17.598Z,99879.30
2023-03-03T06:41:27.261Z,99888.93
2023-03-03T06:43:51.805Z,99870.17
2023-03-03T06:45:00.330Z,99877.44
2023-03-03T06:46:09.866Z,99872.83
2023-03-03T06:47:20.301Z,99873.64
2023-03-03T06:48:31.549Z,99872.13
2023-03-03T06:49:41.184Z,99860.54
2023-03-03T06:50:50.614Z,99863.67
2023-03-03T06:52:03.806Z,99865.05
2023-03-03T06:53:15.035Z,99865.55
2023-03-03T06:54:31.065Z,99865.26
2023-03-03T06:55:43.367Z,99865.06
2023-03-03T06:56:54.675Z,99862.18
2023-03-03T06:58:10.208Z,99860.25
2023-03-03T06:59:21.986Z,99857.52
2023-03-03T07:00:31.384Z,99851.17
2023-03-03T07:01:42.471Z,99855.36
2023-03-03T07:02:56.704Z,99846.81
2023-03-03T07:04:21.265Z,99841.34
2023-03-03T07:05:31.038Z,99852.83
2023-03-03T07:06:39.777Z,99853.05
2023-03-03T07:07:48.695Z,99851.13
2023-03-03T07:08:57.555Z,99848.66
2023-03-03T07:11:31.365Z,99847.08
2023-03-03T07:12:41.542Z,99850.23
2023-03-03T07:13:52.817Z,99842.41
2023-03-03T07:16:29.937Z,99841.53
2023-03-03T07:17:42.670Z,99846.16
2023-03-03T07:19:02.085Z,99847.50
2023-03-03T07:20:16.068Z,99844.48
2023-03-03T07:21:36.406Z,99843.59
2023-03-03T07:22:48.576Z,99850.08
2023-03-03T07:23:58.761Z,99845.07
2023-03-03T07:27:47.250Z,99839.08
2023-03-03T07:29:02.281Z,99837.58
2023-03-03T07:30:28.166Z,99843.59
2023-03-03T07:31:41.861Z,99838.59
2023-03-03T07:34:31.930Z,99829.17
2023-03-03T07:35:44.636Z,99832.92
2023-03-03T07:36:57.085Z,99836.23
2023-03-03T07:38:28.354Z,99837.72
2023-03-03T07:39:41.535Z,99837.40
2023-03-03T07:40:54.940Z,99829.54
2023-03-03T07:42:27.506Z,99828.38
2023-03-03T07:44:58.834Z,99827.69
2023-03-03T07:46:21.213Z,99838.57
2023-03-03T07:47:33.679Z,99833.57
2023-03-03T07:50:01.062Z,99822.30
2023-03-03T07:51:31.249Z,99821.53
2023-03-03T07:52:43.175Z,99825.97
2023-03-03T07:53:52.627Z,99834.28
2023-03-03T07:56:30.776Z,99815.09
2023-03-03T07:57:41.243Z,99824.01
2023-03-03T07:58:50.246Z,99824.11
2023-03-03T08:00:16.345Z,99825.43
2023-03-03T08:01:43.173Z,99831.39
2023-03-03T08:04:20.411Z,99813.59
2023-03-03T08:05:39.122Z,99821.84
2023-03-03T08:08:29.675Z,99811.08
2023-03-03T08:09:45.600Z,99814.25
2023-03-03T08:10:55.473Z,99811.73
2023-03-03T08:12:27.202Z,99810.31
2023-03-03T08:13:38.249Z,99811.79
2023-03-03T08:14:47.504Z,99797.98
2023-03-03T08:16:02.392Z,99803.37
2023-03-03T08:17:18.631Z,99810.34
2023-03-03T08:18:37.111Z,99804.33
2023-03-03T08:19:46.881Z,99803.05
2023-03-03T08:22:18.634Z,99798.61
2023-03-03T08:23:28.669Z,99794.56
2023-03-03T08:24:38.624Z,99802.97
2023-03-03T08:27:05.344Z,99790.09
2023-03-03T08:28:14.668Z,99795.99
2023-03-03T08:29:23.655Z,99801.58
2023-03-03T08:31:47.700Z,99784.05
2023-03-03T08:32:57.257Z,99796.79
2023-03-03T08:34:06.217Z,99795.23
2023-03-03T08:35:15.072Z,99785.50
2023-03-03T08:36:24.734Z,99794.13
2023-03-03T08:37:35.416Z,99788.34
2023-03-03T08:38:43.924Z,99781.02
2023-03-03T08:41:08.230Z,99783.02
2023-03-03T08:42:19.943Z,99783.69
2023-03-03T08:43:29.686Z,99782.66
2023-03-03T08:45:57.886Z,99787.16
2023-03-03T08:48:21.290Z,99782.03
2023-03-03T08:50:45.718Z,99776.16
2023-03-03T08:51:56.100Z,99778.25
2023-03-03T08:53:05.766Z,99775.58
2023-03-03T08:54:14.443Z,99774.52
2023-03-03T08:55:23.115Z,99766.28
2023-03-03T08:56:32.040Z,99772.56
2023-03-03T08:57:40.970Z,99775.84
2023-03-03T09:00:08.518Z,99764.30
2023-03-03T09:01:17.949Z,99765.66
2023-03-03T09:02:27.694Z,99767.30
2023-03-03T09:04:52.402Z,99757.05
2023-03-03T09:06:01.788Z,99758.44
2023-03-03T09:07:11.844Z,99753.95
2023-03-03T09:08:20.863Z,99750.71
2023-03-03T09:09:29.862Z,99756.98
2023-03-03T09:10:38.892Z,99754.41
2023-03-03T09:11:48.496Z,99753.80
2023-03-03T09:13:01.346Z,99758.02
2023-03-03T09:14:13.458Z,99746.64
2023-03-03T09:16:52.864Z,99739.34
2023-03-03T09:19:39.348Z,99745.52
2023-03-03T09:20:54.738Z,99748.03
2023-03-03T09:23:40.683Z,99742.62
2023-03-03T09:24:54.356Z,99744.59
2023-03-03T09:27:29.991Z,99737.61
2023-03-03T09:28:39.524Z,99744.16
2023-03-03T09:29:50.243Z,99729.85
2023-03-03T09:32:42.574Z,99734.34
2023-03-03T09:33:54.406Z,99736.91
2023-03-03T09:35:36.718Z,99740.38
2023-03-03T09:36:45.429Z,99731.77
2023-03-03T09:37:54.079Z,99726.94
2023-03-03T09:39:21.503Z,99733.64
2023-03-03T09:41:06.442Z,99730.92
2023-03-03T09:42:50.689Z,99722.97
2023-03-03T09:45:39.425Z,99724.37
2023-03-03T09:47:14.857Z,99719.64
2023-03-03T09:48:33.063Z,99715.61
2023-03-03T09:49:47.969Z,99706.58
2023-03-03T09:51:05.078Z,99711.73
2023-03-03T09:52:38.208Z,99703.03
2023-03-03T09:54:02.840Z,99706.06
2023-03-03T09:55:18.198Z,99708.27
2023-03-03T09:56:45.877Z,99706.39
2023-03-03T09:58:10.807Z,99698.02
2023-03-03T09:59:41.524Z,99693.48
2023-03-03T10:01:09.954Z,99690.53
2023-03-03T10:02:53.787Z,99689.50
2023-03-03T10:04:09.641Z,99684.16
2023-03-03T10:05:38.508Z,99688.37
2023-03-03T10:07:02.423Z,99678.86
2023-03-03T10:08:18.581Z,99674.88
2023-03-03T10:11:07.833Z,99664.25
2023-03-03T10:12:28.944Z,99666.33
2023-03-03T10:13:50.632Z,99670.73
2023-03-03T10:15:19.012Z,99665.09
2023-03-03T10:16:48.668Z,99658.83
2023-03-03T10:19:38.989Z,99654.23
2023-03-03T10:21:03.842Z,99651.25
2023-03-03T10:23:59.030Z,99647.00
2023-03-03T10:25:23.963Z,99648.04
2023-03-03T10:26:46.419Z,99650.31
2023-03-03T10:28:09.789Z,99655.34
2023-03-03T10:29:33.875Z,99648.16
2023-03-03T10:34:01.407Z,99635.72
2023-03-03T10:35:32.720Z,99635.22
2023-03-03T10:37:03.209Z,99626.81
2023-03-03T10:38:18.318Z,99629.98
2023-03-03T10:39:39.888Z,99622.07
2023-03-03T10:42:30.780Z,99615.02
2023-03-03T10:43:51.851Z,99617.18
2023-03-03T10:46:45.314Z,99604.53
2023-03-03T10:48:09.996Z,99602.91
2023-03-03T10:49:38.855Z,99597.53
2023-03-03T10:54:06.898Z,99592.52
2023-03-03T10:56:56.256Z,99590.45
2023-03-03T10:58:23.927Z,99591.19
2023-03-03T11:01:45.124Z,99585.37
2023-03-03T11:03:14.180Z,99592.62
2023-03-03T11:07:43.011Z,99568.70
2023-03-03T11:08:58.812Z,99574.53
2023-03-03T11:12:01.813Z,99576.45
2023-03-03T11:16:38.983Z,99570.72
2023-03-03T11:18:26.097Z,99573.25
2023-03-03T11:21:09.577Z,99567.66
2023-03-03T11:25:32.723Z,99554.88
2023-03-03T11:27:02.441Z,99556.50
2023-03-03T11:28:37.956Z,99557.52
2023-03-03T11:31:37.252Z,99550.02
2023-03-03T11:32:53.039Z,99552.59
2023-03-03T11:35:48.410Z,99549.53
2023-03-03T11:37:29.707Z,99550.77
2023-03-03T11:38:54.991Z,99551.36
2023-03-03T11:43:37.029Z,99540.21
2023-03-03T11:46:24.198Z,99538.97
2023-03-03T11:49:04.147Z,99538.50
2023-03-03T11:51:55.006Z,99534.01
2023-03-03T11:53:25.035Z,99534.58
2023-03-03T11:56:18.085Z,99524.07
2023-03-03T11:57:43.431Z,99531.80
2023-03-03T11:59:05.033Z,99538.67
2023-03-03T12:00:24.174Z,99534.11
2023-03-03T12:01:54.183Z,99531.23
2023-03-03T12:03:29.247Z,99524.95
2023-03-03T12:07:32.147Z,99512.34
2023-03-03T12:09:06.547Z,99521.33
2023-03-03T12:12:08.701Z,99514.36
2023-03-03T12:15:01.216Z,99520.86
2023-03-03T12:16:23.086Z,99517.61
2023-03-03T12:17:41.604Z,99518.66
2023-03-03T12:18:54.927Z,99517.32
2023-03-03T12:22:10.516Z,99505.59
2023-03-03T12:23:31.615Z,99517.61
2023-03-03T12:29:38.618Z,99508.66
2023-03-03T12:31:01.267Z,99505.61
2023-03-03T12:32:21.995Z,99510.64
2023-03-03T12:33:53.083Z,99505.24
2023-03-03T12:35:07.415Z,99499.91
2023-03-03T12:36:23.072Z,99502.38
2023-03-03T12:37:50.921Z,99502.48
2023-03-03T12:40:22.571Z,99491.30
2023-03-03T12:43:30.203Z,99501.03
2023-03-03T12:44:49.482Z,99496.36
2023-03-03T12:46:08.608Z,99490.72
2023-03-03T12:48:47.214Z,99489.41
2023-03-03T12:50:09.463Z,99496.26
2023-03-03T12:51:32.300Z,99492.74
2023-03-03T12:53:00.366Z,99493.79
2023-03-03T12:55:54.614Z,99482.81
2023-03-03T12:57:23.856Z,99484.45
2023-03-03T12:59:08.597Z,99483.77
2023-03-03T13:00:24.847Z,99484.66
2023-03-03T13:01:57.634Z,99480.55
2023-03-03T13:03:31.566Z,99483.22
2023-03-03T13:04:54.550Z,99479.77
2023-03-03T13:07:30.597Z,99477.20
2023-03-03T13:08:54.431Z,99479.41
2023-03-03T13:10:21.721Z,99487.42
2023-03-03T13:13:18.094Z,99470.72
2023-03-03T13:14:49.371Z,99473.88
2023-03-03T13:19:19.259Z,99457.27
2023-03-03T13:20:44.091Z,99459.86
2023-03-03T13:23:40.762Z,99459.50
2023-03-03T13:25:08.109Z,99460.80
2023-03-03T13:26:27.590Z,99458.34
2023-03-03T13:27:41.254Z,99462.73
2023-03-03T13:30:22.354Z,99451.19
2023-03-03T13:33:05.188Z,99444.43
2023-03-03T13:34:27.241Z,99453.78
2023-03-03T13:37:23.452Z,99447.38
2023-03-03T13:38:40.140Z,99454.42
2023-03-03T13:40:13.975Z,99444.63
2023-03-03T13:42:53.199Z,99439.17
2023-03-03T13:45:51.211Z,99440.80
2023-03-03T13:47:17.065Z,99430.89
2023-03-03T13:48:53.575Z,99430.69
2023-03-03T13:50:25.529Z,99426.50
2023-03-03T13:51:42.629Z,99429.84
2023-03-03T13:54:23.612Z,99413.16
2023-03-03T13:55:46.041Z,99420.22
2023-03-03T13:57:27.757Z,99420.78
2023-03-03T14:00:29.673Z,99416.70
2023-03-03T14:02:15.845Z,99418.12
2023-03-03T14:06:18.329Z,99411.91
2023-03-03T14:07:34.122Z,99413.26
2023-03-03T14:08:59.405Z,99415.08
2023-03-03T14:10:26.212Z,99421.56
2023-03-03T14:11:39.637Z,99417.84
2023-03-03T14:12:56.096Z,99413.56
2023-03-03T14:14:33.550Z,99417.84
2023-03-03T14:17:23.255Z,99414.68
2023-03-03T14:18:37.070Z,99415.18
2023-03-03T14:20:09.027Z,99408.22
2023-03-03T14:21:27.209Z,99401.73
2023-03-03T14:22:48.483Z,99409.34
2023-03-03T14:25:17.233Z,99390.93
2023-03-03T14:26:26.041Z,99396.98
2023-03-03T14:27:40.692Z,99400.59
2023-03-03T14:28:53.386Z,99394.68
2023-03-03T14:30:35.753Z,99394.58
2023-03-03T14:31:48.006Z,99387.25
2023-03-03T14:33:04.208Z,99386.30
2023-03-03T14:35:53.550Z,99389.41
2023-03-03T14:37:39.948Z,99384.52
2023-03-03T14:38:50.871Z,99387.92
2023-03-03T14:40:01.751Z,99385.26
2023-03-03T14:41:19.356Z,99382.80
2023-03-03T14:44:02.897Z,99378.57
2023-03-03T14:45:29.369Z,99388.39
2023-03-03T14:47:52.638Z,99376.41
2023-03-03T14:49:04.264Z,99382.31
2023-03-03T14:51:50.839Z,99377.05
2023-03-03T14:54:45.515Z,99382.59
2023-03-03T14:55:57.245Z,99386.41
2023-03-03T14:57:26.538Z,99376.58
2023-03-03T14:58:39.451Z,99375.06
2023-03-03T15:00:06.205Z,99375.76
2023-03-03T15:03:14.886Z,99368.63
2023-03-03T15:04:27.220Z,99384.49
2023-03-03T15:05:36.273Z,99383.09
2023-03-03T15:06:49.060Z,99383.84
2023-03-03T15:08:08.873Z,99379.55
2023-03-03T15:09:27.008Z,99379.45
2023-03-03T15:12:00.553Z,99376.32
2023-03-03T15:13:22.342Z,99373.27
2023-03-03T15:14:41.285Z,99371.45
2023-03-03T15:16:06.254Z,99383.73
2023-03-03T15:17:27.487Z,99382.11
2023-03-03T15:18:56.901Z,99386.12
2023-03-03T15:20:34.743Z,99383.25
2023-03-03T15:23:38.346Z,99379.83
2023-03-03T15:26:49.530Z,99374.59
2023-03-03T15:28:08.265Z,99384.88
2023-03-03T15:29:39.169Z,99380.78
2023-03-03T15:30:59.023Z,99379.84
2023-03-03T15:32:31.212Z,99384.59
2023-03-03T15:36:51.536Z,99376.32
2023-03-03T15:38:12.577Z,99379.74
2023-03-03T15:42:36.112Z,99379.19
2023-03-03T15:45:18.703Z,99383.94
2023-03-03T15:46:31.679Z,99388.13
2023-03-03T15:48:21.330Z,99390.90
2023-03-03T15:51:08.378Z,99377.63
2023-03-03T15:54:22.480Z,99381.92
2023-03-03T15:55:43.648Z,99389.03
2023-03-03T15:58:51.474Z,99380.30
2023-03-03T16:00:36.523Z,99382.66
2023-03-03T16:02:17.498Z,99389.81
2023-03-03T16:03:36.483Z,99387.99
2023-03-03T16:04:55.960Z,99388.28
2023-03-03T16:06:19.292Z,99393.61
2023-03-03T16:08:56.234Z,99385.63
2023-03-03T16:13:19.406Z,99389.04
2023-03-03T16:14:37.463Z,99387.80
2023-03-03T16:16:00.115Z,99388.67
2023-03-03T16:19:05.457Z,99388.00
2023-03-03T16:22:14.035Z,99389.44
2023-03-03T16:23:36.292Z,99383.91
2023-03-03T16:26:43.856Z,99382.86
2023-03-03T16:27:56.192Z,99383.51
2023-03-03T16:29:29.551Z,99387.89
2023-03-03T16:31:04.980Z,99392.54
2023-03-03T16:32:22.824Z,99390.16
2023-03-03T16:33:44.957Z,99385.77
2023-03-03T16:36:34.770Z,99383.30
2023-03-03T16:38:02.384Z,99391.23
2023-03-03T16:40:52.683Z,99389.66
2023-03-03T16:42:21.619Z,99393.11
2023-03-03T16:45:23.199Z,99404.45
2023-03-03T16:46:50.448Z,99399.66
2023-03-03T16:48:13.017Z,99401.58
2023-03-03T16:49:31.826Z,99406.80
2023-03-03T16:50:47.965Z,99399.16
2023-03-03T16:52:02.800Z,99394.02
2023-03-03T16:53:39.151Z,99405.45
2023-03-03T16:54:57.164Z,99398.84
2023-03-03T16:56:27.256Z,99402.95
2023-03-03T16:59:04.631Z,99398.34
2023-03-03T17:00:23.547Z,99400.60
2023-03-03T17:05:02.151Z,99395.37
2023-03-03T17:06:21.372Z,99396.95
2023-03-03T17:08:08.592Z,99399.53
2023-03-03T17:09:46.229Z,99401.91
2023-03-03T17:12:55.847Z,99398.53
2023-03-03T17:14:31.383Z,99399.00
2023-03-03T17:15:47.374Z,99394.33
2023-03-03T17:17:20.757Z,99396.25
2023-03-03T17:19:08.137Z,99392.14
2023-03-03T17:20:27.229Z,99395.14
2023-03-03T17:22:07.746Z,99387.25
2023-03-03T17:23:20.559Z,99390.75
2023-03-03T17:24:49.418Z,99389.06
2023-03-03T17:26:10.527Z,99388.19
2023-03-03T17:27:35.251Z,99392.66
2023-03-03T17:29:09.050Z,99386.55
2023-03-03T17:32:24.011Z,99395.14
2023-03-03T17:33:51.635Z,99389.49
2023-03-03T17:35:37.040Z,99392.16
2023-03-03T17:40:08.679Z,99388.47
2023-03-03T17:43:06.876Z,99399.63
2023-03-03T17:44:22.976Z,99396.81
2023-03-03T17:45:38.509Z,99402.30
2023-03-03T17:46:53.349Z,99394.22
2023-03-03T17:48:09.584Z,99395.19
2023-03-03T17:49:58.113Z,99396.40
2023-03-03T17:51:31.731Z,99394.77
2023-03-03T17:53:07.887Z,99399.06
2023-03-03T17:54:20.095Z,99399.81
2023-03-03T17:57:08.427Z,99401.27
2023-03-03T18:01:55.859Z,99393.09
2023-03-03T18:03:25.368Z,99391.83
2023-03-03T18:04:42.061Z,99391.55
2023-03-03T18:10:38.278Z,99396.87
2023-03-03T18:12:00.651Z,99391.31
2023-03-03T18:13:33.955Z,99395.52
2023-03-03T18:17:56.876Z,99388.26
2023-03-03T18:21:05.395Z,99389.20
2023-03-03T18:22:21.373Z,99391.81
2023-03-03T18:26:35.292Z,99388.09
2023-03-03T18:28:05.867Z,99391.22
2023-03-03T18:29:28.359Z,99384.86
2023-03-03T18:32:20.597Z,99393.46
2023-03-03T18:33:56.265Z,99396.55
2023-03-03T18:35:25.848Z,99397.34
2023-03-03T18:36:38.371Z,99393.04
2023-03-03T18:37:47.392Z,99392.86
2023-03-03T18:38:58.839Z,99392.77
2023-03-03T18:40:14.313Z,99396.55
2023-03-03T18:41:32.203Z,99381.45
2023-03-03T18:44:05.029Z,99394.67
2023-03-03T18:45:25.029Z,99400.88
2023-03-03T18:46:41.544Z,99405.41
2023-03-03T18:48:00.230Z,99401.90
2023-03-03T18:50:36.371Z,99393.46
2023-03-03T18:51:48.262Z,99399.33
2023-03-03T18:53:21.939Z,99400.17
2023-03-03T18:54:32.980Z,99400.35
2023-03-03T18:57:04.924Z,99397.24
2023-03-03T18:59:39.059Z,99392.98
2023-03-03T19:02:19.649Z,99405.77
2023-03-03T19:03:50.139Z,99404.63
2023-03-03T19:05:21.622Z,99409.28
2023-03-03T19:06:34.668Z,99408.41